Terminal Aerodrome Forecast
Issued by NWS

Home | Current Version | Previous Version | Text Only | Print | Product List | Glossary On
Versions: 1 2 3 4 5 6 7 8 9 10 11 12 13 14 15 16 17 18 19 20
000
FTAK31 PANC 171151 AAA
TAFACD
TAF AMD
PACD 171151Z 1712/1812 31020G30KT 6SM -SHSN SCT022 BKN035
      TEMPO 1712/1716 1SM -SN BR SCT010 OVC022
     FM180000 31008G18KT 6SM -SHSN SCT025 BKN040=

USA.gov is the U.S. government's official web portal to all federal, state and local government web resources and services.